sensor_id;sensor_type;location;lat;lon;timestamp;P1;durP1;ratioP1;P2;durP2;ratioP2
47912;SDS011;33676;51.006;17.180;2022-07-29T00:01:42;2.70;;;2.10;;
47912;SDS011;33676;51.006;17.180;2022-07-29T00:04:11;3.80;;;2.60;;
47912;SDS011;33676;51.006;17.180;2022-07-29T00:06:41;3.60;;;2.60;;
47912;SDS011;33676;51.006;17.180;2022-07-29T00:09:10;3.90;;;2.50;;
47912;SDS011;33676;51.006;17.180;2022-07-29T00:11:38;5.40;;;2.40;;
47912;SDS011;33676;51.006;17.180;2022-07-29T00:14:07;5.10;;;3.10;;
47912;SDS011;33676;51.006;17.180;2022-07-29T00:16:36;3.10;;;2.70;;
47912;SDS011;33676;51.006;17.180;2022-07-29T00:19:05;3.10;;;2.70;;
47912;SDS011;33676;51.006;17.180;2022-07-29T00:21:35;4.60;;;2.20;;
47912;SDS011;33676;51.006;17.180;2022-07-29T00:24:03;3.70;;;2.10;;
47912;SDS011;33676;51.006;17.180;2022-07-29T00:26:32;3.90;;;2.70;;
47912;SDS011;33676;51.006;17.180;2022-07-29T00:29:03;5.60;;;3.30;;
47912;SDS011;33676;51.006;17.180;2022-07-29T00:31:52;6.00;;;3.00;;
47912;SDS011;33676;51.006;17.180;2022-07-29T00:34:21;2.50;;;2.30;;
47912;SDS011;33676;51.006;17.180;2022-07-29T00:37:08;4.40;;;3.00;;
47912;SDS011;33676;51.006;17.180;2022-07-29T00:39:37;3.90;;;3.00;;
47912;SDS011;33676;51.006;17.180;2022-07-29T00:42:05;4.50;;;2.80;;
47912;SDS011;33676;51.006;17.180;2022-07-29T00:44:41;2.20;;;2.00;;
47912;SDS011;33676;51.006;17.180;2022-07-29T00:47:10;3.50;;;2.80;;
47912;SDS011;33676;51.006;17.180;2022-07-29T00:49:41;3.60;;;2.60;;
47912;SDS011;33676;51.006;17.180;2022-07-29T00:52:10;3.80;;;3.00;;
47912;SDS011;33676;51.006;17.180;2022-07-29T00:54:44;5.20;;;4.10;;
47912;SDS011;33676;51.006;17.180;2022-07-29T00:57:12;4.20;;;3.80;;
47912;SDS011;33676;51.006;17.180;2022-07-29T00:59:41;6.30;;;3.20;;
47912;SDS011;33676;51.006;17.180;2022-07-29T01:02:10;4.40;;;2.60;;
47912;SDS011;33676;51.006;17.180;2022-07-29T01:04:39;6.20;;;4.00;;
47912;SDS011;33676;51.006;17.180;2022-07-29T01:07:08;5.10;;;3.90;;
47912;SDS011;33676;51.006;17.180;2022-07-29T01:09:38;5.20;;;3.60;;
47912;SDS011;33676;51.006;17.180;2022-07-29T01:14:46;3.50;;;2.90;;
47912;SDS011;33676;51.006;17.180;2022-07-29T01:17:38;4.70;;;3.20;;
47912;SDS011;33676;51.006;17.180;2022-07-29T01:29:11;4.20;;;2.80;;
47912;SDS011;33676;51.006;17.180;2022-07-29T01:32:14;1.90;;;1.80;;
47912;SDS011;33676;51.006;17.180;2022-07-29T01:35:31;3.70;;;3.30;;
47912;SDS011;33676;51.006;17.180;2022-07-29T01:38:13;2.90;;;2.70;;
47912;SDS011;33676;51.006;17.180;2022-07-29T01:40:53;3.40;;;2.50;;
47912;SDS011;33676;51.006;17.180;2022-07-29T01:43:36;2.90;;;2.50;;
47912;SDS011;33676;51.006;17.180;2022-07-29T01:46:13;2.90;;;2.70;;
47912;SDS011;33676;51.006;17.180;2022-07-29T01:48:50;5.20;;;2.90;;
47912;SDS011;33676;51.006;17.180;2022-07-29T01:51:33;3.90;;;3.10;;
47912;SDS011;33676;51.006;17.180;2022-07-29T01:56:50;6.10;;;3.10;;
47912;SDS011;33676;51.006;17.180;2022-07-29T01:59:21;5.30;;;2.90;;
47912;SDS011;33676;51.006;17.180;2022-07-29T02:01:57;5.30;;;4.40;;
47912;SDS011;33676;51.006;17.180;2022-07-29T02:04:27;6.50;;;3.80;;
47912;SDS011;33676;51.006;17.180;2022-07-29T02:07:01;4.10;;;3.00;;
47912;SDS011;33676;51.006;17.180;2022-07-29T02:09:35;7.40;;;5.10;;
47912;SDS011;33676;51.006;17.180;2022-07-29T02:12:06;10.40;;;5.80;;
47912;SDS011;33676;51.006;17.180;2022-07-29T02:14:38;9.80;;;6.90;;
47912;SDS011;33676;51.006;17.180;2022-07-29T02:17:12;12.60;;;8.20;;
47912;SDS011;33676;51.006;17.180;2022-07-29T02:19:45;13.30;;;8.80;;
47912;SDS011;33676;51.006;17.180;2022-07-29T02:22:17;14.70;;;10.20;;
47912;SDS011;33676;51.006;17.180;2022-07-29T02:24:47;8.00;;;5.80;;
47912;SDS011;33676;51.006;17.180;2022-07-29T02:27:19;6.80;;;5.30;;
47912;SDS011;33676;51.006;17.180;2022-07-29T02:29:49;8.60;;;5.50;;
47912;SDS011;33676;51.006;17.180;2022-07-29T02:32:19;9.40;;;5.60;;
47912;SDS011;33676;51.006;17.180;2022-07-29T02:34:51;11.00;;;5.90;;
47912;SDS011;33676;51.006;17.180;2022-07-29T02:37:21;7.60;;;5.30;;
47912;SDS011;33676;51.006;17.180;2022-07-29T02:39:52;5.70;;;4.20;;
47912;SDS011;33676;51.006;17.180;2022-07-29T02:42:23;13.70;;;7.20;;
47912;SDS011;33676;51.006;17.180;2022-07-29T02:44:55;11.70;;;6.70;;
47912;SDS011;33676;51.006;17.180;2022-07-29T02:47:31;9.00;;;7.20;;
47912;SDS011;33676;51.006;17.180;2022-07-29T02:50:22;7.50;;;6.80;;
47912;SDS011;33676;51.006;17.180;2022-07-29T02:55:40;8.50;;;6.10;;
47912;SDS011;33676;51.006;17.180;2022-07-29T03:01:16;6.10;;;5.30;;
47912;SDS011;33676;51.006;17.180;2022-07-29T03:03:51;7.00;;;4.50;;
47912;SDS011;33676;51.006;17.180;2022-07-29T03:06:23;6.80;;;4.80;;
47912;SDS011;33676;51.006;17.180;2022-07-29T03:09:08;5.90;;;4.00;;
47912;SDS011;33676;51.006;17.180;2022-07-29T03:11:41;7.30;;;4.20;;
47912;SDS011;33676;51.006;17.180;2022-07-29T03:14:18;3.80;;;3.10;;
47912;SDS011;33676;51.006;17.180;2022-07-29T03:16:49;6.80;;;2.90;;
47912;SDS011;33676;51.006;17.180;2022-07-29T03:19:19;4.40;;;3.50;;
47912;SDS011;33676;51.006;17.180;2022-07-29T03:21:48;3.60;;;3.10;;
47912;SDS011;33676;51.006;17.180;2022-07-29T03:24:28;7.60;;;4.10;;
47912;SDS011;33676;51.006;17.180;2022-07-29T03:27:01;7.60;;;4.10;;
47912;SDS011;33676;51.006;17.180;2022-07-29T03:29:32;5.60;;;4.10;;
47912;SDS011;33676;51.006;17.180;2022-07-29T03:32:03;11.60;;;4.10;;
47912;SDS011;33676;51.006;17.180;2022-07-29T03:34:36;5.90;;;3.80;;
47912;SDS011;33676;51.006;17.180;2022-07-29T03:37:06;6.70;;;3.90;;
47912;SDS011;33676;51.006;17.180;2022-07-29T03:39:38;4.10;;;3.80;;
47912;SDS011;33676;51.006;17.180;2022-07-29T03:42:12;8.10;;;3.80;;
47912;SDS011;33676;51.006;17.180;2022-07-29T03:44:45;7.20;;;3.40;;
47912;SDS011;33676;51.006;17.180;2022-07-29T03:47:18;3.20;;;2.80;;
47912;SDS011;33676;51.006;17.180;2022-07-29T03:50:12;5.80;;;3.80;;
47912;SDS011;33676;51.006;17.180;2022-07-29T03:52:43;6.40;;;4.30;;
47912;SDS011;33676;51.006;17.180;2022-07-29T03:55:12;5.90;;;3.60;;
47912;SDS011;33676;51.006;17.180;2022-07-29T03:57:42;8.40;;;4.70;;
47912;SDS011;33676;51.006;17.180;2022-07-29T04:00:13;6.90;;;4.20;;
47912;SDS011;33676;51.006;17.180;2022-07-29T04:02:43;6.00;;;3.90;;
47912;SDS011;33676;51.006;17.180;2022-07-29T04:05:17;3.90;;;3.50;;
47912;SDS011;33676;51.006;17.180;2022-07-29T04:07:47;7.00;;;3.80;;
47912;SDS011;33676;51.006;17.180;2022-07-29T04:10:16;7.00;;;4.30;;
47912;SDS011;33676;51.006;17.180;2022-07-29T04:12:59;8.80;;;3.50;;
47912;SDS011;33676;51.006;17.180;2022-07-29T04:15:28;6.40;;;3.60;;
47912;SDS011;33676;51.006;17.180;2022-07-29T04:17:58;7.30;;;3.70;;
47912;SDS011;33676;51.006;17.180;2022-07-29T04:20:27;8.10;;;4.20;;
47912;SDS011;33676;51.006;17.180;2022-07-29T04:22:56;7.00;;;4.00;;
47912;SDS011;33676;51.006;17.180;2022-07-29T04:25:25;4.30;;;3.70;;
47912;SDS011;33676;51.006;17.180;2022-07-29T04:27:53;6.00;;;2.90;;
47912;SDS011;33676;51.006;17.180;2022-07-29T04:30:29;3.80;;;3.20;;
47912;SDS011;33676;51.006;17.180;2022-07-29T04:32:59;4.60;;;4.10;;
47912;SDS011;33676;51.006;17.180;2022-07-29T04:35:30;4.00;;;3.60;;
47912;SDS011;33676;51.006;17.180;2022-07-29T04:38:06;5.20;;;3.50;;
47912;SDS011;33676;51.006;17.180;2022-07-29T04:40:44;3.60;;;3.30;;
47912;SDS011;33676;51.006;17.180;2022-07-29T04:43:15;4.80;;;3.10;;
47912;SDS011;33676;51.006;17.180;2022-07-29T04:45:49;3.20;;;2.90;;
47912;SDS011;33676;51.006;17.180;2022-07-29T04:48:18;5.00;;;3.60;;
47912;SDS011;33676;51.006;17.180;2022-07-29T04:53:22;4.10;;;3.70;;
47912;SDS011;33676;51.006;17.180;2022-07-29T04:55:51;6.70;;;3.70;;
47912;SDS011;33676;51.006;17.180;2022-07-29T04:58:20;7.90;;;3.60;;
47912;SDS011;33676;51.006;17.180;2022-07-29T05:00:51;4.30;;;3.90;;
47912;SDS011;33676;51.006;17.180;2022-07-29T05:03:19;3.70;;;3.40;;
47912;SDS011;33676;51.006;17.180;2022-07-29T05:05:48;4.50;;;3.70;;
47912;SDS011;33676;51.006;17.180;2022-07-29T05:08:17;6.00;;;3.70;;
47912;SDS011;33676;51.006;17.180;2022-07-29T05:10:45;4.30;;;2.80;;
47912;SDS011;33676;51.006;17.180;2022-07-29T05:13:14;7.20;;;3.80;;
47912;SDS011;33676;51.006;17.180;2022-07-29T05:15:42;3.00;;;2.70;;
47912;SDS011;33676;51.006;17.180;2022-07-29T05:18:11;5.20;;;2.50;;
47912;SDS011;33676;51.006;17.180;2022-07-29T05:20:40;6.20;;;3.20;;
47912;SDS011;33676;51.006;17.180;2022-07-29T05:23:10;3.60;;;2.10;;
47912;SDS011;33676;51.006;17.180;2022-07-29T05:25:40;4.20;;;2.80;;
47912;SDS011;33676;51.006;17.180;2022-07-29T05:28:12;3.60;;;3.30;;
47912;SDS011;33676;51.006;17.180;2022-07-29T05:30:40;4.80;;;3.80;;
47912;SDS011;33676;51.006;17.180;2022-07-29T05:33:10;4.70;;;2.80;;
47912;SDS011;33676;51.006;17.180;2022-07-29T05:35:59;3.10;;;2.50;;
47912;SDS011;33676;51.006;17.180;2022-07-29T05:38:28;3.70;;;3.30;;
47912;SDS011;33676;51.006;17.180;2022-07-29T05:40:58;2.60;;;2.40;;
47912;SDS011;33676;51.006;17.180;2022-07-29T05:43:28;6.20;;;3.80;;
47912;SDS011;33676;51.006;17.180;2022-07-29T05:45:57;4.00;;;2.70;;
47912;SDS011;33676;51.006;17.180;2022-07-29T05:49:16;3.80;;;2.70;;
47912;SDS011;33676;51.006;17.180;2022-07-29T05:53:10;11.50;;;3.00;;
47912;SDS011;33676;51.006;17.180;2022-07-29T05:56:52;2.20;;;2.00;;
47912;SDS011;33676;51.006;17.180;2022-07-29T05:59:21;3.80;;;3.00;;
47912;SDS011;33676;51.006;17.180;2022-07-29T06:01:57;4.50;;;3.50;;
47912;SDS011;33676;51.006;17.180;2022-07-29T06:04:26;3.50;;;2.20;;
47912;SDS011;33676;51.006;17.180;2022-07-29T06:06:54;2.60;;;2.40;;
47912;SDS011;33676;51.006;17.180;2022-07-29T06:09:23;2.90;;;2.50;;
47912;SDS011;33676;51.006;17.180;2022-07-29T06:11:52;2.60;;;2.20;;
47912;SDS011;33676;51.006;17.180;2022-07-29T06:14:20;3.90;;;2.20;;
47912;SDS011;33676;51.006;17.180;2022-07-29T06:16:49;4.50;;;2.30;;
47912;SDS011;33676;51.006;17.180;2022-07-29T06:19:18;3.60;;;2.50;;
47912;SDS011;33676;51.006;17.180;2022-07-29T06:21:47;4.60;;;2.10;;
47912;SDS011;33676;51.006;17.180;2022-07-29T06:24:16;4.70;;;2.10;;
47912;SDS011;33676;51.006;17.180;2022-07-29T06:26:45;2.70;;;2.30;;
47912;SDS011;33676;51.006;17.180;2022-07-29T06:29:14;3.30;;;2.30;;
47912;SDS011;33676;51.006;17.180;2022-07-29T06:31:43;2.60;;;2.40;;
47912;SDS011;33676;51.006;17.180;2022-07-29T06:34:11;2.80;;;2.60;;
47912;SDS011;33676;51.006;17.180;2022-07-29T06:36:41;2.00;;;1.80;;
47912;SDS011;33676;51.006;17.180;2022-07-29T06:39:09;1.80;;;1.60;;
47912;SDS011;33676;51.006;17.180;2022-07-29T06:41:39;3.20;;;1.80;;
47912;SDS011;33676;51.006;17.180;2022-07-29T06:44:08;2.60;;;2.40;;
47912;SDS011;33676;51.006;17.180;2022-07-29T06:46:37;2.80;;;2.30;;
47912;SDS011;33676;51.006;17.180;2022-07-29T06:49:06;2.70;;;1.50;;
47912;SDS011;33676;51.006;17.180;2022-07-29T06:51:34;5.10;;;2.40;;
47912;SDS011;33676;51.006;17.180;2022-07-29T06:54:04;3.00;;;1.60;;
47912;SDS011;33676;51.006;17.180;2022-07-29T06:56:34;3.80;;;1.90;;
47912;SDS011;33676;51.006;17.180;2022-07-29T06:59:08;3.30;;;1.50;;
47912;SDS011;33676;51.006;17.180;2022-07-29T07:01:42;3.10;;;1.50;;
47912;SDS011;33676;51.006;17.180;2022-07-29T07:04:11;2.80;;;1.60;;
47912;SDS011;33676;51.006;17.180;2022-07-29T07:06:42;2.80;;;1.80;;
47912;SDS011;33676;51.006;17.180;2022-07-29T07:09:10;1.30;;;1.30;;
47912;SDS011;33676;51.006;17.180;2022-07-29T07:11:39;2.00;;;1.90;;
47912;SDS011;33676;51.006;17.180;2022-07-29T07:14:07;3.30;;;1.70;;
47912;SDS011;33676;51.006;17.180;2022-07-29T07:16:36;1.60;;;1.50;;
47912;SDS011;33676;51.006;17.180;2022-07-29T07:19:05;1.80;;;1.70;;
47912;SDS011;33676;51.006;17.180;2022-07-29T07:21:33;2.70;;;1.80;;
47912;SDS011;33676;51.006;17.180;2022-07-29T07:24:03;4.10;;;2.20;;
47912;SDS011;33676;51.006;17.180;2022-07-29T07:26:32;4.10;;;2.00;;
47912;SDS011;33676;51.006;17.180;2022-07-29T07:29:01;2.40;;;1.80;;
47912;SDS011;33676;51.006;17.180;2022-07-29T07:31:30;2.80;;;1.90;;
47912;SDS011;33676;51.006;17.180;2022-07-29T07:33:59;2.20;;;2.00;;
47912;SDS011;33676;51.006;17.180;2022-07-29T07:36:28;7.40;;;2.10;;
47912;SDS011;33676;51.006;17.180;2022-07-29T07:38:56;2.40;;;2.10;;
47912;SDS011;33676;51.006;17.180;2022-07-29T07:41:25;3.00;;;1.60;;
47912;SDS011;33676;51.006;17.180;2022-07-29T07:43:59;2.90;;;1.80;;
47912;SDS011;33676;51.006;17.180;2022-07-29T07:46:28;2.20;;;1.70;;
47912;SDS011;33676;51.006;17.180;2022-07-29T07:48:57;4.80;;;2.10;;
47912;SDS011;33676;51.006;17.180;2022-07-29T07:51:25;4.30;;;1.40;;
47912;SDS011;33676;51.006;17.180;2022-07-29T07:53:55;1.50;;;1.40;;
47912;SDS011;33676;51.006;17.180;2022-07-29T07:56:24;2.00;;;1.80;;
47912;SDS011;33676;51.006;17.180;2022-07-29T07:58:53;2.70;;;1.50;;
47912;SDS011;33676;51.006;17.180;2022-07-29T08:01:21;3.40;;;2.00;;
47912;SDS011;33676;51.006;17.180;2022-07-29T08:03:51;2.40;;;2.10;;
47912;SDS011;33676;51.006;17.180;2022-07-29T08:06:19;2.20;;;1.30;;
47912;SDS011;33676;51.006;17.180;2022-07-29T08:08:48;2.00;;;1.80;;
47912;SDS011;33676;51.006;17.180;2022-07-29T08:11:17;4.80;;;2.20;;
47912;SDS011;33676;51.006;17.180;2022-07-29T08:13:45;1.60;;;1.50;;
47912;SDS011;33676;51.006;17.180;2022-07-29T08:16:15;2.00;;;1.80;;
47912;SDS011;33676;51.006;17.180;2022-07-29T08:18:44;2.80;;;2.50;;
47912;SDS011;33676;51.006;17.180;2022-07-29T08:21:14;2.30;;;1.80;;
47912;SDS011;33676;51.006;17.180;2022-07-29T08:23:44;2.70;;;1.70;;
47912;SDS011;33676;51.006;17.180;2022-07-29T08:26:24;3.00;;;2.20;;
47912;SDS011;33676;51.006;17.180;2022-07-29T08:28:53;2.30;;;2.20;;
47912;SDS011;33676;51.006;17.180;2022-07-29T08:31:22;4.40;;;2.40;;
47912;SDS011;33676;51.006;17.180;2022-07-29T08:33:50;1.90;;;1.80;;
47912;SDS011;33676;51.006;17.180;2022-07-29T08:36:19;2.00;;;1.60;;
47912;SDS011;33676;51.006;17.180;2022-07-29T08:38:49;2.40;;;2.30;;
47912;SDS011;33676;51.006;17.180;2022-07-29T08:41:19;3.50;;;1.70;;
47912;SDS011;33676;51.006;17.180;2022-07-29T08:43:50;2.00;;;1.80;;
47912;SDS011;33676;51.006;17.180;2022-07-29T08:46:28;2.40;;;2.00;;
47912;SDS011;33676;51.006;17.180;2022-07-29T08:48:57;2.10;;;1.70;;
47912;SDS011;33676;51.006;17.180;2022-07-29T08:51:26;5.10;;;2.60;;
47912;SDS011;33676;51.006;17.180;2022-07-29T08:53:56;2.00;;;1.90;;
47912;SDS011;33676;51.006;17.180;2022-07-29T08:56:25;2.80;;;1.90;;
47912;SDS011;33676;51.006;17.180;2022-07-29T08:58:54;4.20;;;1.80;;
47912;SDS011;33676;51.006;17.180;2022-07-29T09:01:27;1.80;;;1.50;;
47912;SDS011;33676;51.006;17.180;2022-07-29T09:04:05;2.30;;;2.10;;
47912;SDS011;33676;51.006;17.180;2022-07-29T09:09:12;1.80;;;1.70;;
47912;SDS011;33676;51.006;17.180;2022-07-29T09:11:42;2.30;;;2.00;;
47912;SDS011;33676;51.006;17.180;2022-07-29T09:14:12;3.10;;;2.60;;
47912;SDS011;33676;51.006;17.180;2022-07-29T09:21:59;4.90;;;2.40;;
47912;SDS011;33676;51.006;17.180;2022-07-29T09:24:42;4.10;;;2.60;;
47912;SDS011;33676;51.006;17.180;2022-07-29T09:27:20;2.70;;;2.40;;
47912;SDS011;33676;51.006;17.180;2022-07-29T09:30:07;3.50;;;2.50;;
47912;SDS011;33676;51.006;17.180;2022-07-29T09:32:57;2.40;;;2.20;;
47912;SDS011;33676;51.006;17.180;2022-07-29T09:35:29;2.40;;;2.30;;
47912;SDS011;33676;51.006;17.180;2022-07-29T09:38:09;2.90;;;2.00;;
47912;SDS011;33676;51.006;17.180;2022-07-29T09:40:39;2.40;;;1.80;;
47912;SDS011;33676;51.006;17.180;2022-07-29T09:43:12;2.90;;;2.20;;
47912;SDS011;33676;51.006;17.180;2022-07-29T09:45:41;3.20;;;2.20;;
47912;SDS011;33676;51.006;17.180;2022-07-29T09:48:28;5.40;;;2.50;;
47912;SDS011;33676;51.006;17.180;2022-07-29T09:50:57;4.60;;;2.50;;
47912;SDS011;33676;51.006;17.180;2022-07-29T09:53:35;4.80;;;2.70;;
47912;SDS011;33676;51.006;17.180;2022-07-29T09:56:05;6.40;;;2.80;;
47912;SDS011;33676;51.006;17.180;2022-07-29T09:58:34;10.40;;;2.40;;
47912;SDS011;33676;51.006;17.180;2022-07-29T10:01:02;3.70;;;2.10;;
47912;SDS011;33676;51.006;17.180;2022-07-29T10:03:32;2.00;;;1.90;;
47912;SDS011;33676;51.006;17.180;2022-07-29T10:06:10;3.20;;;2.60;;
47912;SDS011;33676;51.006;17.180;2022-07-29T10:08:41;4.60;;;2.60;;
47912;SDS011;33676;51.006;17.180;2022-07-29T10:11:17;5.70;;;3.00;;
47912;SDS011;33676;51.006;17.180;2022-07-29T10:13:48;3.30;;;3.10;;
47912;SDS011;33676;51.006;17.180;2022-07-29T10:16:16;5.90;;;2.50;;
47912;SDS011;33676;51.006;17.180;2022-07-29T10:18:46;2.70;;;2.40;;
47912;SDS011;33676;51.006;17.180;2022-07-29T10:21:15;3.40;;;2.70;;
47912;SDS011;33676;51.006;17.180;2022-07-29T10:24:04;7.10;;;2.50;;
47912;SDS011;33676;51.006;17.180;2022-07-29T10:26:42;2.80;;;2.60;;
47912;SDS011;33676;51.006;17.180;2022-07-29T10:29:10;2.40;;;2.20;;
47912;SDS011;33676;51.006;17.180;2022-07-29T10:32:11;5.20;;;2.30;;
47912;SDS011;33676;51.006;17.180;2022-07-29T10:46:46;2.40;;;2.20;;
47912;SDS011;33676;51.006;17.180;2022-07-29T10:49:20;2.10;;;2.00;;
47912;SDS011;33676;51.006;17.180;2022-07-29T10:52:02;2.00;;;1.90;;
47912;SDS011;33676;51.006;17.180;2022-07-29T10:54:39;2.40;;;2.10;;
47912;SDS011;33676;51.006;17.180;2022-07-29T10:57:30;9.40;;;3.40;;
47912;SDS011;33676;51.006;17.180;2022-07-29T11:00:27;2.30;;;2.20;;
47912;SDS011;33676;51.006;17.180;2022-07-29T11:02:58;2.20;;;2.10;;
47912;SDS011;33676;51.006;17.180;2022-07-29T11:05:51;5.10;;;2.70;;
47912;SDS011;33676;51.006;17.180;2022-07-29T11:08:23;2.90;;;2.60;;
47912;SDS011;33676;51.006;17.180;2022-07-29T11:13:50;5.00;;;2.60;;
47912;SDS011;33676;51.006;17.180;2022-07-29T11:16:22;2.60;;;2.40;;
47912;SDS011;33676;51.006;17.180;2022-07-29T11:21:44;3.80;;;3.60;;
47912;SDS011;33676;51.006;17.180;2022-07-29T11:24:28;5.90;;;5.50;;
47912;SDS011;33676;51.006;17.180;2022-07-29T11:27:16;10.00;;;9.50;;
47912;SDS011;33676;51.006;17.180;2022-07-29T11:29:51;11.30;;;11.00;;
47912;SDS011;33676;51.006;17.180;2022-07-29T11:32:24;20.70;;;20.10;;
47912;SDS011;33676;51.006;17.180;2022-07-29T11:41:19;7.00;;;2.80;;
47912;SDS011;33676;51.006;17.180;2022-07-29T11:46:45;2.10;;;2.00;;
47912;SDS011;33676;51.006;17.180;2022-07-29T11:49:27;2.90;;;2.70;;
47912;SDS011;33676;51.006;17.180;2022-07-29T11:52:00;6.80;;;2.80;;
47912;SDS011;33676;51.006;17.180;2022-07-29T11:54:33;1.90;;;1.80;;
47912;SDS011;33676;51.006;17.180;2022-07-29T11:57:22;2.90;;;2.40;;
47912;SDS011;33676;51.006;17.180;2022-07-29T12:00:06;2.60;;;2.40;;
47912;SDS011;33676;51.006;17.180;2022-07-29T12:02:45;3.60;;;2.20;;
47912;SDS011;33676;51.006;17.180;2022-07-29T12:05:16;3.40;;;2.60;;
47912;SDS011;33676;51.006;17.180;2022-07-29T12:08:09;3.70;;;2.10;;
47912;SDS011;33676;51.006;17.180;2022-07-29T12:10:42;1.90;;;1.80;;
47912;SDS011;33676;51.006;17.180;2022-07-29T12:13:12;3.90;;;2.10;;
47912;SDS011;33676;51.006;17.180;2022-07-29T12:15:42;2.10;;;2.00;;
47912;SDS011;33676;51.006;17.180;2022-07-29T12:18:20;2.60;;;2.40;;
47912;SDS011;33676;51.006;17.180;2022-07-29T12:20:59;2.20;;;2.10;;
47912;SDS011;33676;51.006;17.180;2022-07-29T12:23:32;2.10;;;2.00;;
47912;SDS011;33676;51.006;17.180;2022-07-29T12:26:06;2.80;;;2.60;;
47912;SDS011;33676;51.006;17.180;2022-07-29T12:28:49;2.90;;;2.70;;
47912;SDS011;33676;51.006;17.180;2022-07-29T12:31:17;2.40;;;2.20;;
47912;SDS011;33676;51.006;17.180;2022-07-29T12:34:06;2.50;;;2.30;;
47912;SDS011;33676;51.006;17.180;2022-07-29T12:36:35;2.90;;;2.50;;
47912;SDS011;33676;51.006;17.180;2022-07-29T12:39:04;2.70;;;2.50;;
47912;SDS011;33676;51.006;17.180;2022-07-29T12:41:33;5.60;;;2.90;;
47912;SDS011;33676;51.006;17.180;2022-07-29T12:44:02;8.60;;;3.10;;
47912;SDS011;33676;51.006;17.180;2022-07-29T12:46:31;2.50;;;2.10;;
47912;SDS011;33676;51.006;17.180;2022-07-29T12:49:01;3.50;;;3.20;;
47912;SDS011;33676;51.006;17.180;2022-07-29T12:51:38;2.20;;;2.10;;
47912;SDS011;33676;51.006;17.180;2022-07-29T12:56:39;7.30;;;3.10;;
47912;SDS011;33676;51.006;17.180;2022-07-29T13:01:50;3.10;;;2.80;;
47912;SDS011;33676;51.006;17.180;2022-07-29T13:09:40;7.60;;;7.30;;
47912;SDS011;33676;51.006;17.180;2022-07-29T13:12:12;5.70;;;5.50;;
47912;SDS011;33676;51.006;17.180;2022-07-29T13:14:46;10.40;;;10.10;;
47912;SDS011;33676;51.006;17.180;2022-07-29T13:17:21;18.20;;;17.30;;
47912;SDS011;33676;51.006;17.180;2022-07-29T13:19:52;17.60;;;17.00;;
47912;SDS011;33676;51.006;17.180;2022-07-29T13:22:42;16.80;;;16.20;;
47912;SDS011;33676;51.006;17.180;2022-07-29T13:25:10;14.10;;;13.70;;
47912;SDS011;33676;51.006;17.180;2022-07-29T13:27:39;13.00;;;12.40;;
47912;SDS011;33676;51.006;17.180;2022-07-29T13:30:09;16.40;;;15.90;;
47912;SDS011;33676;51.006;17.180;2022-07-29T13:32:39;19.50;;;18.50;;
47912;SDS011;33676;51.006;17.180;2022-07-29T13:35:08;12.00;;;11.50;;
47912;SDS011;33676;51.006;17.180;2022-07-29T13:37:38;19.60;;;18.30;;
47912;SDS011;33676;51.006;17.180;2022-07-29T13:40:07;18.00;;;17.10;;
47912;SDS011;33676;51.006;17.180;2022-07-29T13:42:37;5.50;;;5.10;;
47912;SDS011;33676;51.006;17.180;2022-07-29T13:45:08;4.30;;;3.90;;
47912;SDS011;33676;51.006;17.180;2022-07-29T13:47:39;3.30;;;3.10;;
47912;SDS011;33676;51.006;17.180;2022-07-29T13:50:14;3.90;;;3.60;;
47912;SDS011;33676;51.006;17.180;2022-07-29T13:52:42;3.50;;;3.10;;
47912;SDS011;33676;51.006;17.180;2022-07-29T13:55:11;3.60;;;2.80;;
47912;SDS011;33676;51.006;17.180;2022-07-29T13:57:40;5.00;;;4.60;;
47912;SDS011;33676;51.006;17.180;2022-07-29T14:00:09;12.10;;;10.80;;
47912;SDS011;33676;51.006;17.180;2022-07-29T14:02:38;5.60;;;5.20;;
47912;SDS011;33676;51.006;17.180;2022-07-29T14:05:08;11.50;;;11.10;;
47912;SDS011;33676;51.006;17.180;2022-07-29T14:07:38;10.30;;;9.80;;
47912;SDS011;33676;51.006;17.180;2022-07-29T14:10:07;3.40;;;3.20;;
47912;SDS011;33676;51.006;17.180;2022-07-29T14:12:37;3.00;;;2.80;;
47912;SDS011;33676;51.006;17.180;2022-07-29T14:15:06;3.10;;;2.70;;
47912;SDS011;33676;51.006;17.180;2022-07-29T14:17:35;2.80;;;2.60;;
47912;SDS011;33676;51.006;17.180;2022-07-29T14:20:04;3.00;;;2.80;;
47912;SDS011;33676;51.006;17.180;2022-07-29T14:22:33;3.90;;;3.60;;
47912;SDS011;33676;51.006;17.180;2022-07-29T14:25:10;3.30;;;2.80;;
47912;SDS011;33676;51.006;17.180;2022-07-29T14:27:42;2.70;;;2.50;;
47912;SDS011;33676;51.006;17.180;2022-07-29T14:30:12;2.10;;;2.10;;
47912;SDS011;33676;51.006;17.180;2022-07-29T14:32:41;5.90;;;2.50;;
47912;SDS011;33676;51.006;17.180;2022-07-29T14:35:09;7.50;;;3.30;;
47912;SDS011;33676;51.006;17.180;2022-07-29T14:37:40;2.90;;;2.60;;
47912;SDS011;33676;51.006;17.180;2022-07-29T14:40:09;3.70;;;3.20;;
47912;SDS011;33676;51.006;17.180;2022-07-29T14:42:39;4.30;;;4.10;;
47912;SDS011;33676;51.006;17.180;2022-07-29T14:45:08;2.90;;;2.80;;
47912;SDS011;33676;51.006;17.180;2022-07-29T14:47:38;2.70;;;2.20;;
47912;SDS011;33676;51.006;17.180;2022-07-29T14:50:07;3.90;;;2.90;;
47912;SDS011;33676;51.006;17.180;2022-07-29T14:52:36;2.90;;;2.50;;
47912;SDS011;33676;51.006;17.180;2022-07-29T14:55:05;3.20;;;2.70;;
47912;SDS011;33676;51.006;17.180;2022-07-29T14:57:47;4.50;;;3.20;;
47912;SDS011;33676;51.006;17.180;2022-07-29T15:00:18;3.00;;;2.80;;
47912;SDS011;33676;51.006;17.180;2022-07-29T15:02:47;3.40;;;2.90;;
47912;SDS011;33676;51.006;17.180;2022-07-29T15:05:30;3.70;;;3.50;;
47912;SDS011;33676;51.006;17.180;2022-07-29T15:08:00;7.20;;;4.10;;
47912;SDS011;33676;51.006;17.180;2022-07-29T15:10:29;2.80;;;2.50;;
47912;SDS011;33676;51.006;17.180;2022-07-29T15:12:57;3.90;;;2.70;;
47912;SDS011;33676;51.006;17.180;2022-07-29T15:15:26;6.40;;;3.30;;
47912;SDS011;33676;51.006;17.180;2022-07-29T15:17:54;2.90;;;2.70;;
47912;SDS011;33676;51.006;17.180;2022-07-29T15:20:23;3.50;;;3.20;;
47912;SDS011;33676;51.006;17.180;2022-07-29T15:22:54;3.30;;;2.90;;
47912;SDS011;33676;51.006;17.180;2022-07-29T15:25:26;6.00;;;3.00;;
47912;SDS011;33676;51.006;17.180;2022-07-29T15:27:55;6.40;;;3.50;;
47912;SDS011;33676;51.006;17.180;2022-07-29T15:30:32;3.50;;;2.90;;
47912;SDS011;33676;51.006;17.180;2022-07-29T15:33:02;8.30;;;3.80;;
47912;SDS011;33676;51.006;17.180;2022-07-29T15:35:31;4.30;;;3.50;;
47912;SDS011;33676;51.006;17.180;2022-07-29T15:38:07;15.90;;;14.70;;
47912;SDS011;33676;51.006;17.180;2022-07-29T15:40:38;4.20;;;3.90;;
47912;SDS011;33676;51.006;17.180;2022-07-29T15:43:09;5.00;;;4.60;;
47912;SDS011;33676;51.006;17.180;2022-07-29T15:45:39;2.90;;;2.70;;
47912;SDS011;33676;51.006;17.180;2022-07-29T15:48:30;4.00;;;3.00;;
47912;SDS011;33676;51.006;17.180;2022-07-29T15:50:59;3.30;;;3.10;;
47912;SDS011;33676;51.006;17.180;2022-07-29T15:53:28;5.00;;;4.60;;
47912;SDS011;33676;51.006;17.180;2022-07-29T15:55:56;16.10;;;15.60;;
47912;SDS011;33676;51.006;17.180;2022-07-29T15:58:25;16.10;;;15.40;;
47912;SDS011;33676;51.006;17.180;2022-07-29T16:00:54;8.20;;;7.80;;
47912;SDS011;33676;51.006;17.180;2022-07-29T16:03:23;4.20;;;3.80;;
47912;SDS011;33676;51.006;17.180;2022-07-29T16:05:52;4.30;;;3.30;;
47912;SDS011;33676;51.006;17.180;2022-07-29T16:08:20;5.10;;;3.70;;
47912;SDS011;33676;51.006;17.180;2022-07-29T16:10:49;3.10;;;2.80;;
47912;SDS011;33676;51.006;17.180;2022-07-29T16:13:18;4.50;;;3.50;;
47912;SDS011;33676;51.006;17.180;2022-07-29T16:15:48;3.90;;;3.20;;